createdAt,value
2023-03-08T00:01:35.493Z,76.67
2023-03-08T00:04:05.182Z,91.07
2023-03-08T00:06:33.550Z,107.97
2023-03-08T00:09:06.562Z,94.47
2023-03-08T00:11:34.570Z,81.67
2023-03-08T00:14:03.631Z,85.67
2023-03-08T00:16:31.866Z,72.77
2023-03-08T00:19:00.985Z,88.77
2023-03-08T00:21:33.054Z,57.93
2023-03-08T00:24:04.560Z,59.10
2023-03-08T00:26:41.512Z,56.63
2023-03-08T00:29:09.874Z,59.77
2023-03-08T00:31:38.790Z,56.67
2023-03-08T00:34:07.376Z,53.40
2023-03-08T00:36:39.766Z,53.80
2023-03-08T00:39:07.906Z,53.27
2023-03-08T00:41:35.812Z,56.73
2023-03-08T00:44:06.881Z,56.93
2023-03-08T00:46:35.118Z,58.17
2023-03-08T00:49:04.711Z,55.47
2023-03-08T00:51:33.246Z,52.40
2023-03-08T00:54:01.448Z,52.67
2023-03-08T00:56:29.471Z,52.63
2023-03-08T00:58:59.970Z,50.27
2023-03-08T01:01:27.857Z,49.40
2023-03-08T01:03:56.509Z,49.13
2023-03-08T01:06:25.633Z,49.07
2023-03-08T01:08:55.282Z,49.80
2023-03-08T01:11:27.583Z,45.57
2023-03-08T01:13:56.293Z,44.77
2023-03-08T01:16:27.466Z,46.23
2023-03-08T01:19:00.059Z,49.73
2023-03-08T01:21:29.755Z,45.73
2023-03-08T01:23:58.146Z,47.60
2023-03-08T01:26:34.139Z,42.80
2023-03-08T01:29:02.655Z,43.57
2023-03-08T01:31:32.068Z,51.13
2023-03-08T01:34:01.287Z,45.50
2023-03-08T01:36:29.774Z,54.53
2023-03-08T01:39:01.870Z,47.50
2023-03-08T01:41:32.091Z,60.27
2023-03-08T01:44:04.411Z,43.67
2023-03-08T01:46:36.868Z,43.73
2023-03-08T01:49:08.984Z,44.70
2023-03-08T01:52:03.085Z,47.87
2023-03-08T01:54:40.595Z,53.13
2023-03-08T01:57:24.841Z,48.13
2023-03-08T02:00:00.401Z,57.53
2023-03-08T02:02:35.115Z,65.90
2023-03-08T02:05:05.415Z,62.23
2023-03-08T02:07:35.024Z,54.33
2023-03-08T02:10:03.742Z,55.97
2023-03-08T02:13:00.763Z,53.63
2023-03-08T02:15:30.547Z,58.07
2023-03-08T02:17:59.425Z,58.57
2023-03-08T02:20:31.576Z,57.73
2023-03-08T02:23:14.291Z,61.00
2023-03-08T02:25:50.302Z,58.77
2023-03-08T02:28:21.835Z,59.20
2023-03-08T02:30:50.885Z,53.23
2023-03-08T02:33:20.780Z,51.70
2023-03-08T02:35:48.973Z,55.37
2023-03-08T02:38:19.833Z,47.37
2023-03-08T02:40:57.506Z,51.07
2023-03-08T02:43:25.772Z,48.90
2023-03-08T02:45:57.098Z,49.77
2023-03-08T02:48:25.140Z,47.07
2023-03-08T02:50:53.272Z,50.33
2023-03-08T02:53:24.070Z,46.33
2023-03-08T02:55:53.101Z,42.53
2023-03-08T02:58:21.032Z,50.03
2023-03-08T03:00:49.293Z,48.13
2023-03-08T03:03:20.112Z,49.37
2023-03-08T03:05:47.943Z,53.33
2023-03-08T03:08:16.945Z,59.67
2023-03-08T03:10:46.313Z,63.70
2023-03-08T03:13:16.723Z,65.27
2023-03-08T03:15:47.178Z,70.73
2023-03-08T03:18:17.704Z,66.67
2023-03-08T03:20:46.056Z,62.23
2023-03-08T03:23:19.408Z,63.73
2023-03-08T03:25:52.074Z,72.60
2023-03-08T03:28:21.021Z,62.67
2023-03-08T03:30:49.790Z,65.43
2023-03-08T03:33:20.055Z,62.50
2023-03-08T03:35:50.845Z,60.63
2023-03-08T03:38:19.098Z,54.03
2023-03-08T03:40:47.141Z,60.17
2023-03-08T03:43:15.327Z,60.37
2023-03-08T03:45:43.706Z,56.07
2023-03-08T03:48:12.017Z,64.63
2023-03-08T03:50:40.032Z,61.43
2023-03-08T03:53:08.143Z,67.80
2023-03-08T03:55:36.760Z,69.77
2023-03-08T03:58:10.427Z,67.77
2023-03-08T04:01:18.376Z,63.83
2023-03-08T04:03:46.644Z,59.57
2023-03-08T04:10:39.576Z,58.37
2023-03-08T04:13:07.734Z,64.50
2023-03-08T04:15:39.412Z,64.23
2023-03-08T04:18:09.024Z,68.90
2023-03-08T04:20:37.182Z,63.30
2023-03-08T04:23:25.062Z,65.77
2023-03-08T04:25:55.104Z,58.27
2023-03-08T04:28:26.936Z,65.63
2023-03-08T04:30:55.734Z,62.93
2023-03-08T04:33:24.353Z,65.03
2023-03-08T04:35:54.163Z,62.63
2023-03-08T04:38:23.249Z,62.10
2023-03-08T04:41:10.652Z,69.00
2023-03-08T04:43:49.556Z,71.50
2023-03-08T04:46:20.230Z,76.00
2023-03-08T04:48:48.388Z,87.27
2023-03-08T04:51:17.377Z,90.83
2023-03-08T04:53:45.757Z,100.70
2023-03-08T04:56:15.468Z,95.87
2023-03-08T04:58:44.276Z,97.43
2023-03-08T05:01:25.456Z,93.93
2023-03-08T05:03:54.290Z,101.80
2023-03-08T05:06:25.815Z,98.33
2023-03-08T05:08:55.408Z,92.90
2023-03-08T05:11:26.243Z,101.03
2023-03-08T05:13:55.801Z,100.10
2023-03-08T05:16:24.635Z,90.00
2023-03-08T05:18:52.746Z,91.63
2023-03-08T05:21:22.155Z,90.00
2023-03-08T05:23:50.253Z,95.03
2023-03-08T05:26:21.847Z,92.13
2023-03-08T05:28:50.158Z,95.20
2023-03-08T05:31:20.815Z,94.80
2023-03-08T05:33:51.341Z,103.37
2023-03-08T05:36:20.324Z,113.77
2023-03-08T05:38:48.569Z,124.80
2023-03-08T05:41:17.188Z,116.70
2023-03-08T05:43:46.613Z,110.13
2023-03-08T05:46:16.922Z,113.13
2023-03-08T05:48:45.124Z,121.03
2023-03-08T05:51:16.597Z,122.13
2023-03-08T05:53:45.259Z,119.07
2023-03-08T05:56:17.560Z,124.67
2023-03-08T05:58:48.450Z,121.60
2023-03-08T06:01:24.298Z,130.43
2023-03-08T06:03:58.339Z,130.93
2023-03-08T06:06:27.389Z,119.17
2023-03-08T06:08:56.832Z,125.70
2023-03-08T06:11:26.320Z,124.87
2023-03-08T06:13:54.783Z,123.67
2023-03-08T06:16:22.679Z,112.17
2023-03-08T06:18:50.678Z,108.20
2023-03-08T06:21:21.486Z,102.63
2023-03-08T06:23:50.378Z,93.07
2023-03-08T06:26:19.701Z,91.17
2023-03-08T06:28:47.894Z,85.97
2023-03-08T06:31:21.196Z,85.10
2023-03-08T06:33:49.972Z,68.77
2023-03-08T06:36:21.011Z,72.30
2023-03-08T06:38:50.065Z,70.80
2023-03-08T06:41:20.177Z,61.37
2023-03-08T06:43:51.504Z,59.27
2023-03-08T06:46:20.590Z,59.20
2023-03-08T06:48:49.602Z,56.37
2023-03-08T06:51:18.625Z,62.87
2023-03-08T06:53:47.313Z,67.87
2023-03-08T06:56:17.231Z,65.50
2023-03-08T06:58:45.105Z,77.60
2023-03-08T07:01:13.509Z,75.47
2023-03-08T07:03:42.021Z,67.30
2023-03-08T07:06:10.898Z,71.10
2023-03-08T07:08:42.364Z,73.73
2023-03-08T07:11:10.901Z,78.53
2023-03-08T07:13:40.257Z,82.97
2023-03-08T07:16:12.882Z,90.27
2023-03-08T07:18:41.858Z,77.30
2023-03-08T07:21:13.161Z,83.37
2023-03-08T07:23:41.961Z,76.43
2023-03-08T07:26:11.011Z,71.50
2023-03-08T07:28:43.949Z,68.93
2023-03-08T07:31:13.425Z,63.60
2023-03-08T07:33:42.896Z,54.23
2023-03-08T07:36:12.794Z,49.10
2023-03-08T07:38:41.460Z,44.83
2023-03-08T07:41:09.705Z,44.20
2023-03-08T07:43:39.474Z,41.70
2023-03-08T07:46:07.281Z,38.60
2023-03-08T07:48:36.168Z,37.63
2023-03-08T07:51:09.909Z,39.77
2023-03-08T07:53:40.298Z,33.97
2023-03-08T07:56:08.541Z,36.47
2023-03-08T07:58:42.231Z,35.53
2023-03-08T08:01:17.903Z,59.07
2023-03-08T08:03:46.162Z,36.40
2023-03-08T08:06:14.896Z,37.03
2023-03-08T08:08:43.536Z,32.00
2023-03-08T08:11:13.800Z,36.80
2023-03-08T08:13:44.553Z,37.47
2023-03-08T08:16:15.678Z,37.90
2023-03-08T08:18:44.598Z,35.63
2023-03-08T08:21:15.437Z,38.27
2023-03-08T08:23:45.471Z,34.67
2023-03-08T08:26:19.623Z,33.53
2023-03-08T08:28:52.564Z,35.83
2023-03-08T08:31:31.311Z,36.97
2023-03-08T08:34:02.769Z,40.20
2023-03-08T08:36:33.428Z,41.70
2023-03-08T08:39:05.180Z,38.27
2023-03-08T08:41:33.857Z,44.30
2023-03-08T08:44:04.964Z,42.90
2023-03-08T08:46:37.757Z,44.13
2023-03-08T08:49:06.457Z,40.43
2023-03-08T08:51:35.475Z,37.43
2023-03-08T08:54:04.182Z,37.17
2023-03-08T08:56:35.279Z,37.27
2023-03-08T08:59:03.978Z,32.10
2023-03-08T09:01:34.680Z,32.83
2023-03-08T09:04:20.193Z,31.50
2023-03-08T09:06:48.255Z,33.10
2023-03-08T09:09:17.846Z,28.80
2023-03-08T09:11:55.047Z,27.57
2023-03-08T09:14:24.844Z,25.00
2023-03-08T09:16:53.323Z,51.47
2023-03-08T09:19:21.389Z,42.10
2023-03-08T09:21:50.002Z,25.70
2023-03-08T09:24:18.114Z,27.07
2023-03-08T09:26:49.768Z,24.53
2023-03-08T09:29:18.861Z,29.43
2023-03-08T09:31:46.947Z,21.27
2023-03-08T09:34:16.781Z,19.87
2023-03-08T09:36:46.958Z,19.10
2023-03-08T09:39:21.244Z,16.77
2023-03-08T09:41:55.094Z,17.27
2023-03-08T09:44:49.841Z,14.07
2023-03-08T09:47:29.739Z,20.67
2023-03-08T09:50:16.530Z,27.33
2023-03-08T09:53:04.125Z,16.50
2023-03-08T09:55:37.057Z,14.87
2023-03-08T09:58:15.153Z,16.97
2023-03-08T10:00:44.697Z,14.50
2023-03-08T10:03:12.839Z,13.37
2023-03-08T10:05:47.705Z,13.27
2023-03-08T10:08:26.244Z,16.87
2023-03-08T10:11:07.876Z,15.70
2023-03-08T10:13:39.628Z,14.90
2023-03-08T10:16:17.230Z,12.63
2023-03-08T10:19:09.463Z,11.43
2023-03-08T10:21:39.629Z,13.60
2023-03-08T10:24:10.257Z,15.63
2023-03-08T10:26:38.772Z,15.90
2023-03-08T10:29:06.912Z,19.03
2023-03-08T10:31:35.017Z,13.80
2023-03-08T10:34:15.954Z,12.00
2023-03-08T10:36:57.899Z,16.80
2023-03-08T10:39:25.778Z,15.97
2023-03-08T10:41:57.795Z,16.50
2023-03-08T10:44:43.305Z,13.07
2023-03-08T10:47:31.268Z,13.57
2023-03-08T10:50:21.596Z,13.43
2023-03-08T10:52:51.641Z,13.20
2023-03-08T10:55:24.870Z,17.13
2023-03-08T10:58:02.301Z,19.17
2023-03-08T11:00:43.605Z,14.97
2023-03-08T11:03:22.057Z,18.67
2023-03-08T11:05:57.875Z,12.90
2023-03-08T11:08:37.830Z,12.60
2023-03-08T11:11:14.155Z,11.33
2023-03-08T11:13:47.928Z,16.47
2023-03-08T11:16:40.328Z,13.03
2023-03-08T11:19:29.541Z,14.70
2023-03-08T11:22:36.090Z,18.27
2023-03-08T11:25:10.001Z,12.00
2023-03-08T11:27:58.090Z,10.83
2023-03-08T11:30:32.264Z,11.73
2023-03-08T11:33:17.125Z,18.83
2023-03-08T11:35:49.105Z,16.63
2023-03-08T11:38:26.218Z,21.33
2023-03-08T11:41:09.431Z,10.90
2023-03-08T11:43:56.316Z,15.67
2023-03-08T11:46:31.926Z,18.00
2023-03-08T11:49:15.859Z,19.13
2023-03-08T11:52:28.936Z,22.77
2023-03-08T11:55:25.330Z,16.50
2023-03-08T11:57:58.920Z,17.23
2023-03-08T12:00:44.091Z,28.17
2023-03-08T12:03:20.904Z,16.53
2023-03-08T12:05:56.170Z,19.43
2023-03-08T12:08:29.879Z,12.10
2023-03-08T12:11:03.682Z,14.03
2023-03-08T12:13:39.650Z,17.40
2023-03-08T12:16:26.124Z,13.70
2023-03-08T12:19:07.058Z,12.90
2023-03-08T12:22:02.368Z,18.37
2023-03-08T12:24:52.974Z,13.13
2023-03-08T12:27:39.915Z,12.73
2023-03-08T12:30:10.533Z,13.33
2023-03-08T12:32:41.039Z,20.07
2023-03-08T12:35:34.212Z,16.17
2023-03-08T12:38:04.704Z,18.60
2023-03-08T12:40:38.884Z,14.77
2023-03-08T12:43:12.010Z,14.73
2023-03-08T12:45:44.966Z,13.37
2023-03-08T12:48:20.657Z,41.00
2023-03-08T12:51:12.149Z,23.80
2023-03-08T12:53:45.613Z,18.53
2023-03-08T12:56:18.075Z,19.17
2023-03-08T12:58:53.247Z,16.47
2023-03-08T13:01:33.890Z,16.80
2023-03-08T13:04:06.686Z,11.90
2023-03-08T13:06:53.910Z,13.23
2023-03-08T13:09:28.355Z,19.43
2023-03-08T13:12:16.618Z,16.57
2023-03-08T13:15:03.604Z,11.30
2023-03-08T13:17:33.152Z,16.83
2023-03-08T13:20:11.710Z,18.33
2023-03-08T13:23:06.509Z,19.63
2023-03-08T13:25:43.522Z,22.43
2023-03-08T13:28:18.395Z,14.17
2023-03-08T13:30:53.138Z,14.87
2023-03-08T13:33:28.405Z,12.43
2023-03-08T13:35:59.937Z,19.50
2023-03-08T13:38:31.134Z,19.03
2023-03-08T13:41:00.764Z,28.07
2023-03-08T13:43:34.066Z,17.13
2023-03-08T13:46:06.986Z,13.67
2023-03-08T13:48:38.229Z,11.87
2023-03-08T13:51:06.726Z,17.20
2023-03-08T13:53:37.076Z,12.70
2023-03-08T13:56:06.904Z,16.30
2023-03-08T13:58:40.444Z,11.77
2023-03-08T14:01:14.243Z,16.67
2023-03-08T14:03:44.102Z,13.70
2023-03-08T14:06:38.383Z,13.97
2023-03-08T14:09:07.624Z,18.97
2023-03-08T14:11:38.524Z,15.63
2023-03-08T14:14:18.403Z,15.20
2023-03-08T14:16:47.253Z,26.80
2023-03-08T14:19:34.778Z,34.67
2023-03-08T14:22:11.516Z,17.50
2023-03-08T14:24:41.589Z,25.93
2023-03-08T14:27:16.349Z,19.47
2023-03-08T14:29:46.303Z,13.63
2023-03-08T14:32:14.449Z,16.93
2023-03-08T14:34:48.637Z,12.87
2023-03-08T14:37:30.650Z,16.20
2023-03-08T14:40:26.751Z,24.77
2023-03-08T14:43:07.174Z,26.67
2023-03-08T14:45:40.869Z,18.47
2023-03-08T14:48:17.946Z,31.23
2023-03-08T14:51:05.018Z,27.23
2023-03-08T14:53:39.829Z,18.90
2023-03-08T14:56:17.594Z,16.07
2023-03-08T14:58:54.266Z,21.57
2023-03-08T15:01:33.250Z,30.47
2023-03-08T15:04:02.978Z,16.30
2023-03-08T15:06:34.633Z,30.13
2023-03-08T15:09:04.173Z,26.33
2023-03-08T15:11:33.221Z,26.20
2023-03-08T15:14:02.097Z,25.93
2023-03-08T15:16:31.511Z,29.40
2023-03-08T15:18:59.649Z,41.43
2023-03-08T15:21:29.920Z,23.17
2023-03-08T15:24:01.567Z,40.00
2023-03-08T15:26:31.966Z,53.50
2023-03-08T15:29:05.346Z,56.80
2023-03-08T15:31:33.724Z,50.07
2023-03-08T15:34:01.945Z,41.33
2023-03-08T15:36:34.958Z,41.10
2023-03-08T15:39:04.952Z,41.13
2023-03-08T15:41:35.302Z,50.03
2023-03-08T15:44:03.959Z,42.43
2023-03-08T15:46:32.582Z,52.43
2023-03-08T15:49:01.173Z,41.17
2023-03-08T15:51:32.508Z,48.03
2023-03-08T15:54:02.575Z,53.47
2023-03-08T15:56:30.739Z,45.23
2023-03-08T15:59:00.180Z,46.20
2023-03-08T16:01:30.359Z,26.80
2023-03-08T16:03:58.291Z,30.47
2023-03-08T16:06:27.379Z,34.47
2023-03-08T16:08:55.379Z,33.73
2023-03-08T16:11:23.769Z,38.07
2023-03-08T16:13:53.593Z,48.70
2023-03-08T16:16:24.477Z,45.33
2023-03-08T16:18:56.380Z,32.83
2023-03-08T16:21:24.960Z,42.33
2023-03-08T16:23:53.099Z,42.77
2023-03-08T16:26:22.280Z,39.60
2023-03-08T16:28:50.713Z,61.53
2023-03-08T16:31:21.247Z,33.33
2023-03-08T16:33:49.728Z,33.40
2023-03-08T16:36:17.857Z,31.30
2023-03-08T16:38:47.278Z,33.47
2023-03-08T16:41:16.193Z,32.77
2023-03-08T16:43:51.623Z,27.93
2023-03-08T16:46:22.743Z,19.73
2023-03-08T16:48:54.130Z,22.27
2023-03-08T16:51:25.298Z,22.87
2023-03-08T16:53:53.783Z,26.63
2023-03-08T16:56:28.051Z,12.97
2023-03-08T16:58:57.872Z,14.77
2023-03-08T17:01:27.314Z,13.83
2023-03-08T17:03:59.270Z,19.13
2023-03-08T17:06:29.794Z,26.20
2023-03-08T17:08:59.375Z,15.47
2023-03-08T17:11:30.424Z,16.83
2023-03-08T17:14:01.140Z,12.87
2023-03-08T17:16:35.922Z,13.53
2023-03-08T17:19:06.552Z,13.67
2023-03-08T17:21:39.169Z,17.40
2023-03-08T17:24:14.234Z,25.40
2023-03-08T17:26:46.648Z,13.97
2023-03-08T17:29:20.729Z,24.03
2023-03-08T17:31:51.993Z,20.10
2023-03-08T17:34:23.440Z,15.77
2023-03-08T17:36:52.246Z,18.83
2023-03-08T17:39:20.828Z,14.87
2023-03-08T17:41:48.698Z,12.57
2023-03-08T17:44:16.860Z,21.63
2023-03-08T17:46:44.928Z,19.10
2023-03-08T17:49:14.223Z,14.90
2023-03-08T17:51:42.876Z,10.73
2023-03-08T17:54:12.420Z,10.07
2023-03-08T17:56:43.943Z,17.17
2023-03-08T17:59:17.674Z,20.77
2023-03-08T18:01:45.897Z,10.60
2023-03-08T18:04:14.128Z,15.90
2023-03-08T18:06:44.067Z,15.20
2023-03-08T18:09:16.362Z,12.77
2023-03-08T18:11:48.611Z,14.97
2023-03-08T18:14:16.771Z,15.30
2023-03-08T18:16:45.400Z,15.77
2023-03-08T18:19:16.389Z,20.17
2023-03-08T18:21:46.776Z,16.13
2023-03-08T18:24:15.239Z,15.27
2023-03-08T18:26:45.065Z,14.33
2023-03-08T18:29:13.382Z,18.07
2023-03-08T18:31:42.316Z,18.03
2023-03-08T18:34:11.483Z,13.03
2023-03-08T18:36:39.383Z,14.70
2023-03-08T18:39:09.172Z,13.60
2023-03-08T18:41:37.183Z,20.20
2023-03-08T18:44:12.702Z,14.77
2023-03-08T18:46:41.145Z,14.53
2023-03-08T18:49:13.613Z,18.10
2023-03-08T18:51:43.138Z,13.47
2023-03-08T18:54:21.035Z,18.07
2023-03-08T18:56:51.655Z,14.73
2023-03-08T18:59:19.871Z,22.20
2023-03-08T19:01:50.386Z,16.47
2023-03-08T19:04:19.030Z,10.93
2023-03-08T19:06:47.618Z,12.40
2023-03-08T19:09:18.196Z,16.77
2023-03-08T19:11:48.341Z,14.87
2023-03-08T19:14:18.032Z,12.73
2023-03-08T19:16:47.000Z,13.93
2023-03-08T19:19:16.945Z,15.67
2023-03-08T19:21:49.034Z,14.87
2023-03-08T19:24:19.372Z,12.13
2023-03-08T19:26:50.688Z,13.67
2023-03-08T19:29:27.123Z,13.63
2023-03-08T19:32:03.170Z,14.77
2023-03-08T19:34:33.682Z,13.57
2023-03-08T19:37:02.913Z,18.40
2023-03-08T19:39:34.397Z,13.10
2023-03-08T19:42:11.319Z,14.03
2023-03-08T19:44:40.215Z,12.60
2023-03-08T19:47:10.270Z,12.83
2023-03-08T19:49:40.372Z,14.57
2023-03-08T19:52:08.667Z,15.77
2023-03-08T19:54:39.490Z,30.80
2023-03-08T19:57:11.006Z,12.33
2023-03-08T19:59:39.639Z,14.43
2023-03-08T20:02:09.133Z,14.00
2023-03-08T20:04:37.056Z,12.37
2023-03-08T20:07:05.235Z,12.70
2023-03-08T20:09:34.139Z,13.70
2023-03-08T20:12:06.200Z,13.03
2023-03-08T20:14:37.021Z,12.03
2023-03-08T20:17:05.456Z,12.27
2023-03-08T20:19:38.052Z,16.80
2023-03-08T20:22:07.266Z,13.30
2023-03-08T20:24:36.153Z,12.17
2023-03-08T20:27:05.627Z,16.30
2023-03-08T20:29:35.109Z,12.63
2023-03-08T20:32:03.568Z,12.43
2023-03-08T20:34:32.995Z,16.97
2023-03-08T20:37:00.869Z,15.50
2023-03-08T20:39:29.477Z,14.67
2023-03-08T20:41:59.072Z,15.97
2023-03-08T20:44:29.116Z,13.90
2023-03-08T20:46:57.339Z,15.80
2023-03-08T20:49:29.030Z,16.57
2023-03-08T20:51:58.869Z,24.97
2023-03-08T20:54:32.856Z,18.67
2023-03-08T20:57:01.432Z,24.30
2023-03-08T20:59:30.190Z,14.07
2023-03-08T21:01:58.900Z,19.50
2023-03-08T21:04:29.650Z,18.07
2023-03-08T21:07:02.242Z,16.43
2023-03-08T21:09:30.710Z,14.10
2023-03-08T21:12:00.366Z,15.50
2023-03-08T21:14:29.353Z,15.40
2023-03-08T21:16:58.191Z,13.17
2023-03-08T21:19:27.470Z,15.40
2023-03-08T21:21:55.857Z,19.33
2023-03-08T21:24:26.030Z,20.17
2023-03-08T21:26:54.382Z,16.23
2023-03-08T21:29:23.025Z,16.07
2023-03-08T21:31:52.713Z,12.80
2023-03-08T21:34:21.626Z,15.83
2023-03-08T21:36:50.261Z,15.13
2023-03-08T21:39:19.324Z,13.67
2023-03-08T21:41:48.809Z,14.23
2023-03-08T21:44:19.651Z,23.37
2023-03-08T21:46:49.058Z,13.77
2023-03-08T21:49:22.073Z,16.07
2023-03-08T21:51:50.713Z,12.20
2023-03-08T21:54:19.445Z,16.03
2023-03-08T21:56:48.033Z,14.93
2023-03-08T21:59:17.277Z,16.40
2023-03-08T22:01:48.610Z,13.83
2023-03-08T22:04:17.770Z,15.87
2023-03-08T22:06:46.643Z,14.40
2023-03-08T22:09:15.887Z,15.53
2023-03-08T22:11:44.281Z,16.23
2023-03-08T22:14:13.061Z,16.97
2023-03-08T22:16:41.464Z,20.10
2023-03-08T22:19:10.919Z,24.53
2023-03-08T22:21:39.614Z,22.13
2023-03-08T22:24:10.828Z,16.63
2023-03-08T22:26:44.232Z,17.13
2023-03-08T22:29:12.330Z,19.60
2023-03-08T22:31:40.914Z,16.40
2023-03-08T22:34:09.990Z,20.93
2023-03-08T22:36:38.430Z,33.67
2023-03-08T22:39:06.751Z,21.33
2023-03-08T22:41:34.517Z,17.13
2023-03-08T22:44:05.226Z,20.50
2023-03-08T22:46:35.023Z,19.63
2023-03-08T22:49:08.063Z,17.57
2023-03-08T22:51:36.772Z,23.93
2023-03-08T22:54:08.313Z,23.33
2023-03-08T22:56:37.318Z,20.03
2023-03-08T22:59:07.731Z,21.13
2023-03-08T23:01:37.221Z,22.27
2023-03-08T23:04:07.302Z,25.03
2023-03-08T23:06:36.072Z,22.20
2023-03-08T23:09:08.360Z,27.13
2023-03-08T23:11:39.591Z,30.27
2023-03-08T23:14:09.254Z,28.20
2023-03-08T23:16:44.100Z,31.73
2023-03-08T23:19:15.066Z,25.80
2023-03-08T23:21:44.947Z,29.47
2023-03-08T23:24:16.298Z,25.00
2023-03-08T23:26:46.716Z,30.00
2023-03-08T23:29:15.561Z,26.93
2023-03-08T23:31:46.202Z,32.70
2023-03-08T23:34:15.422Z,32.17
2023-03-08T23:36:43.784Z,32.87
2023-03-08T23:39:11.823Z,32.13
2023-03-08T23:41:41.272Z,29.17
2023-03-08T23:44:11.445Z,28.13
2023-03-08T23:46:48.356Z,31.80
2023-03-08T23:49:18.202Z,32.97
2023-03-08T23:51:46.609Z,28.03
2023-03-08T23:54:15.167Z,31.07
2023-03-08T23:56:43.841Z,26.13
2023-03-08T23:59:20.628Z,30.47
